sensor_id;sensor_type;location;lat;lon;timestamp;P1;durP1;ratioP1;P2;durP2;ratioP2
29908;SDS011;36247;51.952;6.146;2023-02-28T00:01:16;12.80;;;9.02;;
29908;SDS011;36247;51.952;6.146;2023-02-28T00:03:42;10.93;;;8.23;;
29908;SDS011;36247;51.952;6.146;2023-02-28T00:06:07;11.95;;;9.05;;
29908;SDS011;36247;51.952;6.146;2023-02-28T00:08:34;14.20;;;8.82;;
29908;SDS011;36247;51.952;6.146;2023-02-28T00:11:04;15.77;;;9.07;;
29908;SDS011;36247;51.952;6.146;2023-02-28T00:13:31;13.52;;;9.13;;
29908;SDS011;36247;51.952;6.146;2023-02-28T00:16:00;11.32;;;8.32;;
29908;SDS011;36247;51.952;6.146;2023-02-28T00:18:27;14.05;;;9.40;;
29908;SDS011;36247;51.952;6.146;2023-02-28T00:20:52;13.77;;;8.75;;
29908;SDS011;36247;51.952;6.146;2023-02-28T00:23:18;11.40;;;8.95;;
29908;SDS011;36247;51.952;6.146;2023-02-28T00:25:43;15.23;;;8.75;;
29908;SDS011;36247;51.952;6.146;2023-02-28T00:28:09;15.23;;;8.80;;
29908;SDS011;36247;51.952;6.146;2023-02-28T00:30:35;10.50;;;8.23;;
29908;SDS011;36247;51.952;6.146;2023-02-28T00:33:03;11.98;;;8.30;;
29908;SDS011;36247;51.952;6.146;2023-02-28T00:35:29;11.68;;;8.10;;
29908;SDS011;36247;51.952;6.146;2023-02-28T00:37:54;9.77;;;8.20;;
29908;SDS011;36247;51.952;6.146;2023-02-28T00:40:19;15.25;;;8.90;;
29908;SDS011;36247;51.952;6.146;2023-02-28T00:42:45;11.63;;;8.88;;
29908;SDS011;36247;51.952;6.146;2023-02-28T00:45:10;9.82;;;7.50;;
29908;SDS011;36247;51.952;6.146;2023-02-28T00:47:37;10.50;;;8.05;;
29908;SDS011;36247;51.952;6.146;2023-02-28T00:50:03;12.23;;;7.55;;
29908;SDS011;36247;51.952;6.146;2023-02-28T00:52:29;9.63;;;8.30;;
29908;SDS011;36247;51.952;6.146;2023-02-28T00:54:55;12.23;;;7.32;;
29908;SDS011;36247;51.952;6.146;2023-02-28T00:57:20;10.80;;;7.50;;
29908;SDS011;36247;51.952;6.146;2023-02-28T00:59:47;11.30;;;7.70;;
29908;SDS011;36247;51.952;6.146;2023-02-28T01:02:12;13.30;;;8.70;;
29908;SDS011;36247;51.952;6.146;2023-02-28T01:04:38;11.95;;;6.88;;
29908;SDS011;36247;51.952;6.146;2023-02-28T01:07:03;9.90;;;7.55;;
29908;SDS011;36247;51.952;6.146;2023-02-28T01:09:29;9.73;;;8.07;;
29908;SDS011;36247;51.952;6.146;2023-02-28T01:11:54;11.40;;;8.27;;
29908;SDS011;36247;51.952;6.146;2023-02-28T01:14:19;14.98;;;8.10;;
29908;SDS011;36247;51.952;6.146;2023-02-28T01:16:45;13.50;;;8.05;;
29908;SDS011;36247;51.952;6.146;2023-02-28T01:19:11;18.55;;;8.38;;
29908;SDS011;36247;51.952;6.146;2023-02-28T01:21:37;12.35;;;8.07;;
29908;SDS011;36247;51.952;6.146;2023-02-28T01:24:03;10.68;;;7.43;;
29908;SDS011;36247;51.952;6.146;2023-02-28T01:26:29;11.52;;;7.47;;
29908;SDS011;36247;51.952;6.146;2023-02-28T01:28:55;11.60;;;7.43;;
29908;SDS011;36247;51.952;6.146;2023-02-28T01:31:21;10.25;;;7.93;;
29908;SDS011;36247;51.952;6.146;2023-02-28T01:33:48;11.55;;;8.07;;
29908;SDS011;36247;51.952;6.146;2023-02-28T01:36:14;12.55;;;8.45;;
29908;SDS011;36247;51.952;6.146;2023-02-28T01:38:45;11.90;;;7.32;;
29908;SDS011;36247;51.952;6.146;2023-02-28T01:41:16;10.93;;;7.65;;
29908;SDS011;36247;51.952;6.146;2023-02-28T01:46:11;12.10;;;8.45;;
29908;SDS011;36247;51.952;6.146;2023-02-28T01:48:38;12.73;;;8.40;;
29908;SDS011;36247;51.952;6.146;2023-02-28T01:51:12;11.02;;;7.78;;
29908;SDS011;36247;51.952;6.146;2023-02-28T01:53:44;12.07;;;7.57;;
29908;SDS011;36247;51.952;6.146;2023-02-28T01:56:15;11.93;;;7.32;;
29908;SDS011;36247;51.952;6.146;2023-02-28T01:58:48;10.52;;;7.55;;
29908;SDS011;36247;51.952;6.146;2023-02-28T02:01:16;15.40;;;8.57;;
29908;SDS011;36247;51.952;6.146;2023-02-28T02:03:47;12.20;;;8.90;;
29908;SDS011;36247;51.952;6.146;2023-02-28T02:06:20;9.85;;;7.80;;
29908;SDS011;36247;51.952;6.146;2023-02-28T02:09:01;12.05;;;7.53;;
29908;SDS011;36247;51.952;6.146;2023-02-28T02:11:28;10.85;;;8.35;;
29908;SDS011;36247;51.952;6.146;2023-02-28T02:14:00;14.55;;;8.43;;
29908;SDS011;36247;51.952;6.146;2023-02-28T02:19:36;12.00;;;7.55;;
29908;SDS011;36247;51.952;6.146;2023-02-28T02:27:58;15.23;;;8.45;;
29908;SDS011;36247;51.952;6.146;2023-02-28T02:36:35;11.50;;;8.10;;
29908;SDS011;36247;51.952;6.146;2023-02-28T02:39:12;15.48;;;8.00;;
29908;SDS011;36247;51.952;6.146;2023-02-28T02:44:50;15.95;;;8.43;;
29908;SDS011;36247;51.952;6.146;2023-02-28T02:47:24;13.95;;;8.30;;
29908;SDS011;36247;51.952;6.146;2023-02-28T02:49:53;16.75;;;8.35;;
29908;SDS011;36247;51.952;6.146;2023-02-28T02:52:23;12.45;;;8.57;;
29908;SDS011;36247;51.952;6.146;2023-02-28T02:54:54;16.25;;;9.35;;
29908;SDS011;36247;51.952;6.146;2023-02-28T02:57:24;11.45;;;8.40;;
29908;SDS011;36247;51.952;6.146;2023-02-28T02:59:55;13.13;;;8.43;;
29908;SDS011;36247;51.952;6.146;2023-02-28T03:02:22;11.32;;;8.63;;
29908;SDS011;36247;51.952;6.146;2023-02-28T03:04:50;11.18;;;8.93;;
29908;SDS011;36247;51.952;6.146;2023-02-28T03:07:20;12.07;;;8.38;;
29908;SDS011;36247;51.952;6.146;2023-02-28T03:09:55;12.88;;;8.20;;
29908;SDS011;36247;51.952;6.146;2023-02-28T03:12:23;11.77;;;8.48;;
29908;SDS011;36247;51.952;6.146;2023-02-28T03:23:19;11.18;;;7.97;;
29908;SDS011;36247;51.952;6.146;2023-02-28T03:28:24;14.07;;;8.23;;
29908;SDS011;36247;51.952;6.146;2023-02-28T03:31:41;13.18;;;8.45;;
29908;SDS011;36247;51.952;6.146;2023-02-28T03:36:52;12.48;;;7.68;;
29908;SDS011;36247;51.952;6.146;2023-02-28T03:39:24;9.77;;;7.68;;
29908;SDS011;36247;51.952;6.146;2023-02-28T03:41:57;9.18;;;5.95;;
29908;SDS011;36247;51.952;6.146;2023-02-28T03:46:59;11.90;;;8.57;;
29908;SDS011;36247;51.952;6.146;2023-02-28T03:49:27;12.13;;;7.75;;
29908;SDS011;36247;51.952;6.146;2023-02-28T03:51:58;11.43;;;7.65;;
29908;SDS011;36247;51.952;6.146;2023-02-28T03:54:29;12.77;;;7.95;;
29908;SDS011;36247;51.952;6.146;2023-02-28T03:59:59;12.38;;;8.32;;
29908;SDS011;36247;51.952;6.146;2023-02-28T04:05:04;12.88;;;7.05;;
29908;SDS011;36247;51.952;6.146;2023-02-28T04:07:30;10.90;;;7.30;;
29908;SDS011;36247;51.952;6.146;2023-02-28T04:09:56;12.63;;;7.55;;
29908;SDS011;36247;51.952;6.146;2023-02-28T04:12:22;10.82;;;7.82;;
29908;SDS011;36247;51.952;6.146;2023-02-28T04:14:48;11.40;;;7.47;;
29908;SDS011;36247;51.952;6.146;2023-02-28T04:17:15;13.25;;;7.43;;
29908;SDS011;36247;51.952;6.146;2023-02-28T04:19:40;9.90;;;7.47;;
29908;SDS011;36247;51.952;6.146;2023-02-28T04:22:07;10.38;;;8.43;;
29908;SDS011;36247;51.952;6.146;2023-02-28T04:24:34;10.40;;;7.60;;
29908;SDS011;36247;51.952;6.146;2023-02-28T04:26:59;10.70;;;7.10;;
29908;SDS011;36247;51.952;6.146;2023-02-28T04:29:26;11.73;;;7.72;;
29908;SDS011;36247;51.952;6.146;2023-02-28T04:31:54;10.65;;;7.07;;
29908;SDS011;36247;51.952;6.146;2023-02-28T04:34:22;15.15;;;7.97;;
29908;SDS011;36247;51.952;6.146;2023-02-28T04:36:48;12.25;;;7.28;;
29908;SDS011;36247;51.952;6.146;2023-02-28T04:39:15;10.45;;;7.40;;
29908;SDS011;36247;51.952;6.146;2023-02-28T04:41:43;10.43;;;6.88;;
29908;SDS011;36247;51.952;6.146;2023-02-28T04:44:09;9.05;;;6.72;;
29908;SDS011;36247;51.952;6.146;2023-02-28T04:46:35;14.73;;;8.30;;
29908;SDS011;36247;51.952;6.146;2023-02-28T04:49:01;14.40;;;8.25;;
29908;SDS011;36247;51.952;6.146;2023-02-28T04:51:26;10.90;;;7.10;;
29908;SDS011;36247;51.952;6.146;2023-02-28T04:53:52;9.25;;;7.20;;
29908;SDS011;36247;51.952;6.146;2023-02-28T04:56:18;9.80;;;7.15;;
29908;SDS011;36247;51.952;6.146;2023-02-28T04:58:43;10.93;;;7.53;;
29908;SDS011;36247;51.952;6.146;2023-02-28T05:03:41;12.75;;;7.65;;
29908;SDS011;36247;51.952;6.146;2023-02-28T05:06:08;9.23;;;6.90;;
29908;SDS011;36247;51.952;6.146;2023-02-28T05:08:35;11.15;;;7.70;;
29908;SDS011;36247;51.952;6.146;2023-02-28T05:11:00;13.93;;;7.38;;
29908;SDS011;36247;51.952;6.146;2023-02-28T05:13:27;11.07;;;7.25;;
29908;SDS011;36247;51.952;6.146;2023-02-28T05:15:53;9.68;;;6.57;;
29908;SDS011;36247;51.952;6.146;2023-02-28T05:18:18;12.13;;;6.78;;
29908;SDS011;36247;51.952;6.146;2023-02-28T05:20:44;9.85;;;6.65;;
29908;SDS011;36247;51.952;6.146;2023-02-28T05:23:12;12.80;;;7.05;;
29908;SDS011;36247;51.952;6.146;2023-02-28T05:25:39;12.70;;;6.95;;
29908;SDS011;36247;51.952;6.146;2023-02-28T05:28:05;9.70;;;6.53;;
29908;SDS011;36247;51.952;6.146;2023-02-28T05:30:31;12.60;;;7.53;;
29908;SDS011;36247;51.952;6.146;2023-02-28T05:32:56;12.25;;;7.40;;
29908;SDS011;36247;51.952;6.146;2023-02-28T05:35:23;9.68;;;7.32;;
29908;SDS011;36247;51.952;6.146;2023-02-28T05:37:49;12.07;;;8.43;;
29908;SDS011;36247;51.952;6.146;2023-02-28T05:40:15;12.35;;;9.02;;
29908;SDS011;36247;51.952;6.146;2023-02-28T05:42:41;17.38;;;9.20;;
29908;SDS011;36247;51.952;6.146;2023-02-28T05:45:07;13.20;;;7.80;;
29908;SDS011;36247;51.952;6.146;2023-02-28T05:47:34;11.00;;;6.88;;
29908;SDS011;36247;51.952;6.146;2023-02-28T05:50:00;11.00;;;8.30;;
29908;SDS011;36247;51.952;6.146;2023-02-28T05:52:26;11.07;;;7.68;;
29908;SDS011;36247;51.952;6.146;2023-02-28T05:54:51;9.85;;;6.78;;
29908;SDS011;36247;51.952;6.146;2023-02-28T05:57:17;12.02;;;7.65;;
29908;SDS011;36247;51.952;6.146;2023-02-28T05:59:42;10.02;;;7.25;;
29908;SDS011;36247;51.952;6.146;2023-02-28T06:02:10;11.50;;;7.57;;
29908;SDS011;36247;51.952;6.146;2023-02-28T06:04:38;9.27;;;7.10;;
29908;SDS011;36247;51.952;6.146;2023-02-28T06:07:05;9.32;;;6.78;;
29908;SDS011;36247;51.952;6.146;2023-02-28T06:09:31;12.75;;;8.38;;
29908;SDS011;36247;51.952;6.146;2023-02-28T06:11:57;13.35;;;8.10;;
29908;SDS011;36247;51.952;6.146;2023-02-28T06:14:23;12.60;;;8.18;;
29908;SDS011;36247;51.952;6.146;2023-02-28T06:16:49;12.00;;;7.90;;
29908;SDS011;36247;51.952;6.146;2023-02-28T06:19:14;12.48;;;7.28;;
29908;SDS011;36247;51.952;6.146;2023-02-28T06:21:40;13.35;;;7.45;;
29908;SDS011;36247;51.952;6.146;2023-02-28T06:24:06;10.75;;;8.35;;
29908;SDS011;36247;51.952;6.146;2023-02-28T06:26:31;12.77;;;8.07;;
29908;SDS011;36247;51.952;6.146;2023-02-28T06:28:57;12.43;;;7.28;;
29908;SDS011;36247;51.952;6.146;2023-02-28T06:31:22;15.32;;;9.27;;
29908;SDS011;36247;51.952;6.146;2023-02-28T06:33:49;14.90;;;7.75;;
29908;SDS011;36247;51.952;6.146;2023-02-28T06:36:16;13.43;;;8.77;;
29908;SDS011;36247;51.952;6.146;2023-02-28T06:38:42;13.40;;;8.70;;
29908;SDS011;36247;51.952;6.146;2023-02-28T06:41:08;10.60;;;8.43;;
29908;SDS011;36247;51.952;6.146;2023-02-28T06:43:35;12.95;;;8.05;;
29908;SDS011;36247;51.952;6.146;2023-02-28T06:46:04;14.63;;;8.25;;
29908;SDS011;36247;51.952;6.146;2023-02-28T06:48:31;10.90;;;8.15;;
29908;SDS011;36247;51.952;6.146;2023-02-28T06:51:07;12.15;;;8.68;;
29908;SDS011;36247;51.952;6.146;2023-02-28T06:53:34;9.55;;;7.70;;
29908;SDS011;36247;51.952;6.146;2023-02-28T06:56:04;11.75;;;7.53;;
29908;SDS011;36247;51.952;6.146;2023-02-28T06:58:31;14.45;;;7.80;;
29908;SDS011;36247;51.952;6.146;2023-02-28T07:00:57;10.95;;;8.40;;
29908;SDS011;36247;51.952;6.146;2023-02-28T07:03:22;12.23;;;8.27;;
29908;SDS011;36247;51.952;6.146;2023-02-28T07:05:48;10.70;;;7.43;;
29908;SDS011;36247;51.952;6.146;2023-02-28T07:08:14;13.27;;;7.90;;
29908;SDS011;36247;51.952;6.146;2023-02-28T07:10:40;16.70;;;8.60;;
29908;SDS011;36247;51.952;6.146;2023-02-28T07:13:06;10.68;;;8.25;;
29908;SDS011;36247;51.952;6.146;2023-02-28T07:15:33;11.45;;;8.43;;
29908;SDS011;36247;51.952;6.146;2023-02-28T07:17:59;9.70;;;7.55;;
29908;SDS011;36247;51.952;6.146;2023-02-28T07:20:24;10.52;;;7.78;;
29908;SDS011;36247;51.952;6.146;2023-02-28T07:22:50;12.27;;;7.78;;
29908;SDS011;36247;51.952;6.146;2023-02-28T07:25:22;10.82;;;7.53;;
29908;SDS011;36247;51.952;6.146;2023-02-28T07:27:48;9.50;;;7.22;;
29908;SDS011;36247;51.952;6.146;2023-02-28T07:30:14;10.32;;;7.20;;
29908;SDS011;36247;51.952;6.146;2023-02-28T07:32:40;10.90;;;7.15;;
29908;SDS011;36247;51.952;6.146;2023-02-28T07:35:05;9.15;;;7.60;;
29908;SDS011;36247;51.952;6.146;2023-02-28T07:37:31;11.20;;;6.68;;
29908;SDS011;36247;51.952;6.146;2023-02-28T07:40:02;11.32;;;7.75;;
29908;SDS011;36247;51.952;6.146;2023-02-28T07:42:31;9.85;;;6.90;;
29908;SDS011;36247;51.952;6.146;2023-02-28T07:44:57;9.77;;;6.93;;
29908;SDS011;36247;51.952;6.146;2023-02-28T07:47:24;7.97;;;6.28;;
29908;SDS011;36247;51.952;6.146;2023-02-28T07:49:49;10.10;;;6.63;;
29908;SDS011;36247;51.952;6.146;2023-02-28T07:52:15;8.45;;;6.28;;
29908;SDS011;36247;51.952;6.146;2023-02-28T07:54:40;9.75;;;5.45;;
29908;SDS011;36247;51.952;6.146;2023-02-28T07:57:06;11.18;;;4.57;;
29908;SDS011;36247;51.952;6.146;2023-02-28T07:59:31;6.07;;;3.45;;
29908;SDS011;36247;51.952;6.146;2023-02-28T08:01:57;7.13;;;3.90;;
29908;SDS011;36247;51.952;6.146;2023-02-28T08:04:23;5.25;;;3.28;;
29908;SDS011;36247;51.952;6.146;2023-02-28T08:06:48;4.05;;;3.28;;
29908;SDS011;36247;51.952;6.146;2023-02-28T08:09:17;5.75;;;3.20;;
29908;SDS011;36247;51.952;6.146;2023-02-28T08:11:42;7.07;;;3.42;;
29908;SDS011;36247;51.952;6.146;2023-02-28T08:14:08;6.95;;;3.70;;
29908;SDS011;36247;51.952;6.146;2023-02-28T08:16:33;7.18;;;3.55;;
29908;SDS011;36247;51.952;6.146;2023-02-28T08:18:59;4.05;;;3.45;;
29908;SDS011;36247;51.952;6.146;2023-02-28T08:21:24;6.43;;;3.15;;
29908;SDS011;36247;51.952;6.146;2023-02-28T08:23:50;3.75;;;3.00;;
29908;SDS011;36247;51.952;6.146;2023-02-28T08:26:16;5.93;;;3.15;;
29908;SDS011;36247;51.952;6.146;2023-02-28T08:28:42;5.43;;;3.00;;
29908;SDS011;36247;51.952;6.146;2023-02-28T08:31:10;9.38;;;3.67;;
29908;SDS011;36247;51.952;6.146;2023-02-28T08:33:38;4.25;;;3.22;;
29908;SDS011;36247;51.952;6.146;2023-02-28T08:36:04;6.65;;;3.28;;
29908;SDS011;36247;51.952;6.146;2023-02-28T08:38:30;5.78;;;3.20;;
29908;SDS011;36247;51.952;6.146;2023-02-28T08:41:00;6.03;;;3.55;;
29908;SDS011;36247;51.952;6.146;2023-02-28T08:43:27;5.35;;;3.25;;
29908;SDS011;36247;51.952;6.146;2023-02-28T08:45:56;4.55;;;3.35;;
29908;SDS011;36247;51.952;6.146;2023-02-28T08:48:25;4.35;;;3.45;;
29908;SDS011;36247;51.952;6.146;2023-02-28T08:51:00;3.58;;;3.22;;
29908;SDS011;36247;51.952;6.146;2023-02-28T08:53:30;3.33;;;2.95;;
29908;SDS011;36247;51.952;6.146;2023-02-28T08:56:03;4.78;;;3.60;;
29908;SDS011;36247;51.952;6.146;2023-02-28T08:58:30;5.10;;;3.92;;
29908;SDS011;36247;51.952;6.146;2023-02-28T09:00:57;4.13;;;3.13;;
29908;SDS011;36247;51.952;6.146;2023-02-28T09:03:22;6.35;;;3.70;;
29908;SDS011;36247;51.952;6.146;2023-02-28T09:05:55;8.25;;;3.58;;
29908;SDS011;36247;51.952;6.146;2023-02-28T09:10:48;4.97;;;3.70;;
29908;SDS011;36247;51.952;6.146;2023-02-28T09:13:13;5.07;;;3.20;;
29908;SDS011;36247;51.952;6.146;2023-02-28T09:15:39;4.75;;;3.85;;
29908;SDS011;36247;51.952;6.146;2023-02-28T09:18:04;4.50;;;3.10;;
29908;SDS011;36247;51.952;6.146;2023-02-28T09:20:30;4.75;;;2.97;;
29908;SDS011;36247;51.952;6.146;2023-02-28T09:22:55;2.67;;;2.30;;
29908;SDS011;36247;51.952;6.146;2023-02-28T09:25:21;2.53;;;2.30;;
29908;SDS011;36247;51.952;6.146;2023-02-28T09:27:46;4.80;;;2.30;;
29908;SDS011;36247;51.952;6.146;2023-02-28T09:30:12;3.03;;;2.20;;
29908;SDS011;36247;51.952;6.146;2023-02-28T09:32:38;2.90;;;2.10;;
29908;SDS011;36247;51.952;6.146;2023-02-28T09:35:03;2.55;;;2.35;;
29908;SDS011;36247;51.952;6.146;2023-02-28T09:37:29;4.07;;;2.45;;
29908;SDS011;36247;51.952;6.146;2023-02-28T09:39:56;3.85;;;2.70;;
29908;SDS011;36247;51.952;6.146;2023-02-28T09:42:23;2.83;;;2.42;;
29908;SDS011;36247;51.952;6.146;2023-02-28T09:44:55;4.03;;;2.22;;
29908;SDS011;36247;51.952;6.146;2023-02-28T09:49:49;4.10;;;2.60;;
29908;SDS011;36247;51.952;6.146;2023-02-28T09:52:17;2.78;;;2.42;;
29908;SDS011;36247;51.952;6.146;2023-02-28T09:54:45;3.50;;;2.42;;
29908;SDS011;36247;51.952;6.146;2023-02-28T09:57:14;3.13;;;2.83;;
29908;SDS011;36247;51.952;6.146;2023-02-28T10:02:43;3.03;;;2.50;;
29908;SDS011;36247;51.952;6.146;2023-02-28T10:05:12;4.50;;;3.10;;
29908;SDS011;36247;51.952;6.146;2023-02-28T10:07:55;4.13;;;2.58;;
29908;SDS011;36247;51.952;6.146;2023-02-28T10:10:33;3.60;;;2.50;;
29908;SDS011;36247;51.952;6.146;2023-02-28T10:13:12;3.63;;;2.50;;
29908;SDS011;36247;51.952;6.146;2023-02-28T10:15:45;4.68;;;3.05;;
29908;SDS011;36247;51.952;6.146;2023-02-28T10:18:14;3.63;;;2.60;;
29908;SDS011;36247;51.952;6.146;2023-02-28T10:20:45;3.53;;;2.50;;
29908;SDS011;36247;51.952;6.146;2023-02-28T10:23:15;4.57;;;3.03;;
29908;SDS011;36247;51.952;6.146;2023-02-28T10:25:48;3.13;;;2.60;;
29908;SDS011;36247;51.952;6.146;2023-02-28T10:28:20;3.17;;;2.20;;
29908;SDS011;36247;51.952;6.146;2023-02-28T10:30:47;4.38;;;2.50;;
29908;SDS011;36247;51.952;6.146;2023-02-28T10:33:25;2.78;;;2.47;;
29908;SDS011;36247;51.952;6.146;2023-02-28T10:35:55;3.38;;;2.45;;
29908;SDS011;36247;51.952;6.146;2023-02-28T10:38:32;4.80;;;2.35;;
29908;SDS011;36247;51.952;6.146;2023-02-28T10:41:03;2.97;;;2.67;;
29908;SDS011;36247;51.952;6.146;2023-02-28T10:43:40;2.53;;;2.33;;
29908;SDS011;36247;51.952;6.146;2023-02-28T10:48:45;4.10;;;2.60;;
29908;SDS011;36247;51.952;6.146;2023-02-28T10:51:22;2.55;;;2.35;;
29908;SDS011;36247;51.952;6.146;2023-02-28T10:53:49;3.20;;;2.47;;
29908;SDS011;36247;51.952;6.146;2023-02-28T10:56:18;2.95;;;2.22;;
29908;SDS011;36247;51.952;6.146;2023-02-28T11:03:50;2.50;;;2.30;;
29908;SDS011;36247;51.952;6.146;2023-02-28T11:06:23;3.80;;;2.83;;
29908;SDS011;36247;51.952;6.146;2023-02-28T11:08:54;3.05;;;2.40;;
29908;SDS011;36247;51.952;6.146;2023-02-28T11:11:24;4.30;;;2.58;;
29908;SDS011;36247;51.952;6.146;2023-02-28T11:13:52;4.40;;;2.67;;
29908;SDS011;36247;51.952;6.146;2023-02-28T11:16:21;2.35;;;2.15;;
29908;SDS011;36247;51.952;6.146;2023-02-28T11:18:48;2.47;;;2.20;;
29908;SDS011;36247;51.952;6.146;2023-02-28T11:21:16;3.50;;;2.50;;
29908;SDS011;36247;51.952;6.146;2023-02-28T11:23:45;3.28;;;2.08;;
29908;SDS011;36247;51.952;6.146;2023-02-28T11:26:12;3.40;;;2.35;;
29908;SDS011;36247;51.952;6.146;2023-02-28T11:28:39;3.30;;;2.13;;
29908;SDS011;36247;51.952;6.146;2023-02-28T11:33:46;3.63;;;2.53;;
29908;SDS011;36247;51.952;6.146;2023-02-28T11:38:52;2.67;;;2.47;;
29908;SDS011;36247;51.952;6.146;2023-02-28T11:43:56;3.17;;;2.83;;
29908;SDS011;36247;51.952;6.146;2023-02-28T11:46:55;5.55;;;3.08;;
29908;SDS011;36247;51.952;6.146;2023-02-28T11:52:52;2.83;;;2.47;;
29908;SDS011;36247;51.952;6.146;2023-02-28T11:55:27;4.72;;;2.70;;
29908;SDS011;36247;51.952;6.146;2023-02-28T12:00:56;4.55;;;2.90;;
29908;SDS011;36247;51.952;6.146;2023-02-28T12:11:55;3.70;;;2.80;;
29908;SDS011;36247;51.952;6.146;2023-02-28T12:25:48;3.72;;;3.22;;
29908;SDS011;36247;51.952;6.146;2023-02-28T12:28:27;3.63;;;2.90;;
29908;SDS011;36247;51.952;6.146;2023-02-28T12:33:36;5.13;;;2.85;;
29908;SDS011;36247;51.952;6.146;2023-02-28T12:36:09;4.32;;;3.05;;
29908;SDS011;36247;51.952;6.146;2023-02-28T12:38:38;4.10;;;2.75;;
29908;SDS011;36247;51.952;6.146;2023-02-28T12:41:18;5.07;;;2.20;;
29908;SDS011;36247;51.952;6.146;2023-02-28T12:43:49;4.68;;;2.47;;
29908;SDS011;36247;51.952;6.146;2023-02-28T12:48:57;3.17;;;2.20;;
29908;SDS011;36247;51.952;6.146;2023-02-28T12:51:29;4.55;;;2.33;;
29908;SDS011;36247;51.952;6.146;2023-02-28T12:57:09;2.63;;;2.30;;
29908;SDS011;36247;51.952;6.146;2023-02-28T12:59:57;2.78;;;2.35;;
29908;SDS011;36247;51.952;6.146;2023-02-28T13:05:32;2.40;;;2.20;;
29908;SDS011;36247;51.952;6.146;2023-02-28T13:11:01;3.45;;;2.75;;
29908;SDS011;36247;51.952;6.146;2023-02-28T13:13:28;5.03;;;2.95;;
29908;SDS011;36247;51.952;6.146;2023-02-28T13:16:03;2.97;;;2.40;;
29908;SDS011;36247;51.952;6.146;2023-02-28T13:18:42;2.30;;;2.10;;
29908;SDS011;36247;51.952;6.146;2023-02-28T13:21:21;2.72;;;2.45;;
29908;SDS011;36247;51.952;6.146;2023-02-28T13:32:18;3.85;;;2.65;;
29908;SDS011;36247;51.952;6.146;2023-02-28T13:39:49;4.85;;;2.85;;
29908;SDS011;36247;51.952;6.146;2023-02-28T13:42:48;4.57;;;2.22;;
29908;SDS011;36247;51.952;6.146;2023-02-28T13:45:23;2.90;;;2.55;;
29908;SDS011;36247;51.952;6.146;2023-02-28T13:47:54;3.47;;;2.70;;
29908;SDS011;36247;51.952;6.146;2023-02-28T14:01:43;4.68;;;2.90;;
29908;SDS011;36247;51.952;6.146;2023-02-28T14:07:06;7.50;;;3.28;;
29908;SDS011;36247;51.952;6.146;2023-02-28T14:09:34;3.00;;;2.70;;
29908;SDS011;36247;51.952;6.146;2023-02-28T14:12:51;2.60;;;2.40;;
29908;SDS011;36247;51.952;6.146;2023-02-28T14:15:36;5.20;;;3.40;;
29908;SDS011;36247;51.952;6.146;2023-02-28T14:20:45;5.35;;;3.05;;
29908;SDS011;36247;51.952;6.146;2023-02-28T14:26:01;9.98;;;7.30;;
29908;SDS011;36247;51.952;6.146;2023-02-28T14:31:49;7.53;;;5.28;;
29908;SDS011;36247;51.952;6.146;2023-02-28T14:36:44;9.88;;;6.13;;
29908;SDS011;36247;51.952;6.146;2023-02-28T14:39:14;2.75;;;2.50;;
29908;SDS011;36247;51.952;6.146;2023-02-28T14:41:42;3.75;;;2.40;;
29908;SDS011;36247;51.952;6.146;2023-02-28T14:46:40;6.18;;;3.20;;
29908;SDS011;36247;51.952;6.146;2023-02-28T14:49:18;3.28;;;2.58;;
29908;SDS011;36247;51.952;6.146;2023-02-28T14:51:47;8.32;;;5.78;;
29908;SDS011;36247;51.952;6.146;2023-02-28T14:54:15;15.55;;;10.00;;
29908;SDS011;36247;51.952;6.146;2023-02-28T14:56:50;13.00;;;8.45;;
29908;SDS011;36247;51.952;6.146;2023-02-28T14:59:56;3.30;;;2.70;;
29908;SDS011;36247;51.952;6.146;2023-02-28T15:02:24;6.05;;;4.45;;
29908;SDS011;36247;51.952;6.146;2023-02-28T15:04:57;14.07;;;7.78;;
29908;SDS011;36247;51.952;6.146;2023-02-28T15:07:24;6.70;;;3.70;;
29908;SDS011;36247;51.952;6.146;2023-02-28T15:12:53;10.30;;;7.07;;
29908;SDS011;36247;51.952;6.146;2023-02-28T15:15:25;3.75;;;3.35;;
29908;SDS011;36247;51.952;6.146;2023-02-28T15:17:59;4.00;;;2.65;;
29908;SDS011;36247;51.952;6.146;2023-02-28T15:20:28;3.28;;;2.47;;
29908;SDS011;36247;51.952;6.146;2023-02-28T15:22:54;2.67;;;2.47;;
29908;SDS011;36247;51.952;6.146;2023-02-28T15:25:22;3.92;;;3.03;;
29908;SDS011;36247;51.952;6.146;2023-02-28T15:27:49;4.30;;;3.80;;
29908;SDS011;36247;51.952;6.146;2023-02-28T15:30:30;2.97;;;2.67;;
29908;SDS011;36247;51.952;6.146;2023-02-28T15:33:17;4.68;;;2.80;;
29908;SDS011;36247;51.952;6.146;2023-02-28T15:35:45;11.15;;;8.50;;
29908;SDS011;36247;51.952;6.146;2023-02-28T15:40:52;38.55;;;26.88;;
29908;SDS011;36247;51.952;6.146;2023-02-28T15:48:21;18.25;;;12.65;;
29908;SDS011;36247;51.952;6.146;2023-02-28T15:50:51;11.30;;;7.32;;
29908;SDS011;36247;51.952;6.146;2023-02-28T15:53:21;4.45;;;3.13;;
29908;SDS011;36247;51.952;6.146;2023-02-28T15:55:53;5.82;;;3.63;;
29908;SDS011;36247;51.952;6.146;2023-02-28T15:58:20;3.90;;;3.08;;
29908;SDS011;36247;51.952;6.146;2023-02-28T16:00:59;3.92;;;3.00;;
29908;SDS011;36247;51.952;6.146;2023-02-28T16:03:37;3.00;;;2.63;;
29908;SDS011;36247;51.952;6.146;2023-02-28T16:06:26;3.80;;;3.15;;
29908;SDS011;36247;51.952;6.146;2023-02-28T16:09:02;4.88;;;3.35;;
29908;SDS011;36247;51.952;6.146;2023-02-28T16:11:28;4.32;;;3.20;;
29908;SDS011;36247;51.952;6.146;2023-02-28T16:13:54;4.88;;;2.97;;
29908;SDS011;36247;51.952;6.146;2023-02-28T16:16:20;4.20;;;3.00;;
29908;SDS011;36247;51.952;6.146;2023-02-28T16:18:47;9.75;;;7.28;;
29908;SDS011;36247;51.952;6.146;2023-02-28T16:21:13;9.48;;;6.78;;
29908;SDS011;36247;51.952;6.146;2023-02-28T16:23:38;10.45;;;6.60;;
29908;SDS011;36247;51.952;6.146;2023-02-28T16:26:04;11.60;;;7.70;;
29908;SDS011;36247;51.952;6.146;2023-02-28T16:28:32;13.80;;;10.18;;
29908;SDS011;36247;51.952;6.146;2023-02-28T16:31:00;16.92;;;10.25;;
29908;SDS011;36247;51.952;6.146;2023-02-28T16:33:28;8.43;;;6.38;;
29908;SDS011;36247;51.952;6.146;2023-02-28T16:35:54;5.45;;;3.83;;
29908;SDS011;36247;51.952;6.146;2023-02-28T16:38:19;3.10;;;2.80;;
29908;SDS011;36247;51.952;6.146;2023-02-28T16:40:46;6.00;;;3.25;;
29908;SDS011;36247;51.952;6.146;2023-02-28T16:43:15;4.13;;;3.60;;
29908;SDS011;36247;51.952;6.146;2023-02-28T16:45:44;5.85;;;3.47;;
29908;SDS011;36247;51.952;6.146;2023-02-28T16:48:16;4.28;;;3.83;;
29908;SDS011;36247;51.952;6.146;2023-02-28T16:50:42;7.47;;;3.72;;
29908;SDS011;36247;51.952;6.146;2023-02-28T16:53:09;3.72;;;3.40;;
29908;SDS011;36247;51.952;6.146;2023-02-28T16:55:35;5.35;;;3.72;;
29908;SDS011;36247;51.952;6.146;2023-02-28T16:58:01;4.75;;;3.45;;
29908;SDS011;36247;51.952;6.146;2023-02-28T17:00:28;8.45;;;4.20;;
29908;SDS011;36247;51.952;6.146;2023-02-28T17:02:55;16.05;;;7.93;;
29908;SDS011;36247;51.952;6.146;2023-02-28T17:05:21;15.93;;;10.25;;
29908;SDS011;36247;51.952;6.146;2023-02-28T17:07:47;21.85;;;11.30;;
29908;SDS011;36247;51.952;6.146;2023-02-28T17:10:17;19.75;;;11.00;;
29908;SDS011;36247;51.952;6.146;2023-02-28T17:12:47;13.27;;;8.50;;
29908;SDS011;36247;51.952;6.146;2023-02-28T17:15:13;14.40;;;8.70;;
29908;SDS011;36247;51.952;6.146;2023-02-28T17:17:41;18.42;;;10.98;;
29908;SDS011;36247;51.952;6.146;2023-02-28T17:20:10;19.67;;;11.57;;
29908;SDS011;36247;51.952;6.146;2023-02-28T17:22:50;16.13;;;10.15;;
29908;SDS011;36247;51.952;6.146;2023-02-28T17:25:16;17.23;;;10.65;;
29908;SDS011;36247;51.952;6.146;2023-02-28T17:27:42;17.23;;;11.23;;
29908;SDS011;36247;51.952;6.146;2023-02-28T17:32:46;26.90;;;15.18;;
29908;SDS011;36247;51.952;6.146;2023-02-28T17:35:12;31.20;;;17.08;;